createdAt,value
2019-04-29T00:02:44.484Z,7.35
2019-04-29T00:07:50.165Z,7.12
2019-04-29T00:12:55.934Z,7.22
2019-04-29T00:18:03.104Z,7.18
2019-04-29T00:23:08.583Z,7.37
2019-04-29T00:28:14.463Z,7.46
2019-04-29T00:33:19.963Z,7.35
2019-04-29T00:38:43.543Z,7.27
2019-04-29T00:43:50.563Z,7.27
2019-04-29T00:48:56.003Z,7.34
2019-04-29T00:54:03.145Z,7.24
2019-04-29T00:59:08.724Z,7.35
2019-04-29T01:04:14.403Z,7.33
2019-04-29T01:09:20.694Z,7.31
2019-04-29T01:14:26.125Z,7.21
2019-04-29T01:19:31.603Z,7.28
2019-04-29T01:24:37.103Z,7.17
2019-04-29T01:29:42.723Z,7.17
2019-04-29T01:34:55.549Z,7.16
2019-04-29T01:40:02.683Z,7.15
2019-04-29T01:45:09.369Z,7.26
2019-04-29T01:50:14.844Z,7.13
2019-04-29T01:55:20.324Z,7.23
2019-04-29T02:00:25.806Z,7.22
2019-04-29T02:05:31.249Z,7.24
2019-04-29T02:10:37.003Z,7.31
2019-04-29T02:15:42.484Z,7.38
2019-04-29T02:20:48.013Z,7.37
2019-04-29T02:25:53.484Z,7.34
2019-04-29T02:31:00.687Z,7.43
2019-04-29T02:36:06.227Z,7.41
2019-04-29T02:41:13.546Z,7.38
2019-04-29T02:46:19.144Z,7.21
2019-04-29T02:51:44.326Z,7.17
2019-04-29T02:56:51.390Z,7.16
2019-04-29T03:02:16.245Z,7.24
2019-04-29T03:07:22.530Z,7.15
2019-04-29T03:12:28.111Z,7.21
2019-04-29T03:17:33.644Z,7.14
2019-04-29T03:22:40.923Z,7.17
2019-04-29T03:27:46.436Z,6.76
2019-04-29T03:32:52.242Z,7.02
2019-04-29T03:37:59.005Z,7.12
2019-04-29T03:43:04.491Z,7.25
2019-04-29T03:48:09.985Z,7.30
2019-04-29T03:53:15.746Z,7.32
2019-04-29T03:58:21.567Z,7.60
2019-04-29T04:03:28.610Z,7.68
2019-04-29T04:08:35.687Z,7.80
2019-04-29T04:13:41.253Z,7.84
2019-04-29T04:18:47.412Z,7.98
2019-04-29T04:23:52.995Z,7.98
2019-04-29T04:28:58.605Z,7.85
2019-04-29T04:34:05.163Z,8.12
2019-04-29T04:39:10.627Z,8.25
2019-04-29T04:44:16.146Z,8.43
2019-04-29T04:49:21.683Z,8.64
2019-04-29T04:54:27.134Z,8.52
2019-04-29T04:59:32.702Z,9.06
2019-04-29T05:04:38.183Z,9.43
2019-04-29T05:09:43.784Z,9.85
2019-04-29T05:14:49.329Z,10.39
2019-04-29T05:19:54.829Z,10.65
2019-04-29T05:25:00.309Z,10.88
2019-04-29T05:30:06.779Z,10.80
2019-04-29T05:35:20.756Z,10.86
2019-04-29T05:40:46.990Z,11.12
2019-04-29T05:46:10.287Z,11.11
2019-04-29T05:51:17.403Z,11.07
2019-04-29T05:56:22.926Z,10.95
2019-04-29T06:01:29.972Z,11.12
2019-04-29T06:06:35.644Z,11.20
2019-04-29T06:11:41.205Z,11.17
2019-04-29T06:16:46.785Z,11.35
2019-04-29T06:21:52.515Z,11.53
2019-04-29T06:26:59.116Z,11.71
2019-04-29T06:32:04.603Z,12.01
2019-04-29T06:37:10.146Z,12.89
2019-04-29T06:42:19.603Z,12.77
2019-04-29T06:47:22.785Z,13.99
2019-04-29T06:52:28.298Z,14.59
2019-04-29T06:57:33.781Z,14.97
2019-04-29T07:02:39.313Z,14.12
2019-04-29T07:07:44.764Z,14.66
2019-04-29T07:12:50.264Z,14.70
2019-04-29T07:17:55.865Z,14.76
2019-04-29T07:23:02.465Z,15.11
2019-04-29T07:28:08.124Z,15.18
2019-04-29T07:33:13.637Z,15.16
2019-04-29T07:38:19.145Z,15.66
2019-04-29T07:43:24.924Z,15.43
2019-04-29T07:48:30.436Z,15.10
2019-04-29T07:53:44.799Z,15.13
2019-04-29T07:58:43.105Z,14.54
2019-04-29T08:03:48.665Z,14.32
2019-04-29T08:08:55.705Z,15.19
2019-04-29T08:14:02.083Z,15.40
2019-04-29T08:19:07.545Z,15.63
2019-04-29T08:24:15.933Z,15.12
2019-04-29T08:29:20.250Z,15.16
2019-04-29T08:34:25.931Z,15.84
2019-04-29T08:39:31.407Z,15.49
2019-04-29T08:44:44.475Z,15.88
2019-04-29T08:49:50.332Z,16.20
2019-04-29T08:54:58.962Z,16.58
2019-04-29T09:00:07.573Z,16.77
2019-04-29T09:05:13.615Z,16.40
2019-04-29T09:10:19.373Z,16.59
2019-04-29T09:15:24.821Z,16.92
2019-04-29T09:20:30.290Z,16.67
2019-04-29T09:25:46.450Z,16.62
2019-04-29T09:30:51.893Z,17.13
2019-04-29T09:35:57.433Z,17.25
2019-04-29T09:41:08.460Z,17.39
2019-04-29T09:46:18.414Z,18.19
2019-04-29T09:51:27.973Z,18.07
2019-04-29T09:56:31.125Z,17.99
2019-04-29T10:01:44.184Z,18.28
2019-04-29T10:06:51.234Z,17.91
2019-04-29T10:11:56.824Z,18.34
2019-04-29T10:17:06.760Z,18.80
2019-04-29T10:22:13.374Z,18.73
2019-04-29T10:27:18.834Z,18.85
2019-04-29T10:32:25.504Z,18.78
2019-04-29T10:37:32.674Z,18.41
2019-04-29T10:42:43.097Z,18.84
2019-04-29T10:47:56.170Z,19.38
2019-04-29T10:53:02.804Z,19.75
2019-04-29T10:58:08.698Z,19.52
2019-04-29T11:03:14.587Z,19.31
2019-04-29T11:08:21.943Z,19.29
2019-04-29T11:13:27.386Z,20.03
2019-04-29T11:18:33.177Z,19.85
2019-04-29T11:23:42.913Z,19.93
2019-04-29T11:28:51.266Z,19.10
2019-04-29T11:33:58.402Z,18.90
2019-04-29T11:39:09.007Z,18.87
2019-04-29T11:44:14.063Z,19.16
2019-04-29T11:49:21.135Z,19.47
2019-04-29T11:54:26.764Z,19.65
2019-04-29T11:59:33.828Z,18.52
2019-04-29T12:04:52.993Z,18.93
2019-04-29T12:10:02.306Z,18.73
2019-04-29T12:15:13.612Z,19.30
2019-04-29T12:20:26.543Z,19.50
2019-04-29T12:25:32.190Z,19.18
2019-04-29T12:30:42.203Z,19.68
2019-04-29T12:36:02.630Z,19.16
2019-04-29T12:41:30.176Z,19.02
2019-04-29T12:46:43.272Z,19.63
2019-04-29T12:51:48.868Z,19.67
2019-04-29T12:56:54.343Z,19.31
2019-04-29T13:02:07.609Z,19.51
2019-04-29T13:07:20.715Z,19.66
2019-04-29T13:12:30.252Z,19.65
2019-04-29T13:18:02.178Z,20.40
2019-04-29T13:23:00.553Z,20.26
2019-04-29T13:28:04.401Z,19.59
2019-04-29T13:33:16.561Z,19.31
2019-04-29T13:38:17.567Z,19.02
2019-04-29T13:43:25.972Z,18.71
2019-04-29T13:48:55.806Z,18.82
2019-04-29T13:53:59.097Z,18.54
2019-04-29T13:59:09.701Z,18.59
2019-04-29T14:04:13.258Z,18.50
2019-04-29T14:09:18.724Z,18.57
2019-04-29T14:14:24.677Z,18.83
2019-04-29T14:19:40.879Z,18.91
2019-04-29T14:24:38.726Z,18.92
2019-04-29T14:29:44.273Z,19.06
2019-04-29T14:34:51.354Z,18.67
2019-04-29T14:39:57.003Z,18.61
2019-04-29T14:45:22.024Z,18.44
2019-04-29T14:50:27.683Z,18.53
2019-04-29T14:55:33.170Z,18.21
2019-04-29T15:00:52.770Z,18.19
2019-04-29T15:05:58.393Z,17.90
2019-04-29T15:11:08.323Z,17.84
2019-04-29T15:16:14.148Z,17.76
2019-04-29T15:21:32.664Z,17.66
2019-04-29T15:26:34.889Z,17.43
2019-04-29T15:31:42.462Z,17.30
2019-04-29T15:36:47.625Z,17.08
2019-04-29T15:41:54.672Z,17.09
2019-04-29T15:47:00.545Z,17.17
2019-04-29T15:52:06.204Z,17.09
2019-04-29T15:57:15.490Z,16.97
2019-04-29T16:02:19.369Z,16.87
2019-04-29T16:07:35.525Z,16.80
2019-04-29T16:12:51.006Z,16.80
2019-04-29T16:17:54.956Z,16.78
2019-04-29T16:23:02.060Z,16.72
2019-04-29T16:28:08.254Z,16.66
2019-04-29T16:33:15.578Z,16.59
2019-04-29T16:38:21.227Z,16.58
2019-04-29T16:43:37.285Z,16.49
2019-04-29T16:48:42.964Z,16.27
2019-04-29T16:53:49.406Z,15.96
2019-04-29T16:58:55.297Z,15.85
2019-04-29T17:04:05.144Z,15.50
2019-04-29T17:09:13.666Z,15.10
2019-04-29T17:14:19.824Z,15.07
2019-04-29T17:19:25.327Z,14.93
2019-04-29T17:24:30.844Z,14.76
2019-04-29T17:29:49.568Z,14.66
2019-04-29T17:34:59.410Z,14.51
2019-04-29T17:40:02.373Z,14.41
2019-04-29T17:45:12.384Z,14.10
2019-04-29T17:50:29.569Z,13.90
2019-04-29T17:55:40.242Z,13.85
2019-04-29T18:00:56.150Z,13.81
2019-04-29T18:06:17.202Z,13.65
2019-04-29T18:11:20.568Z,13.78
2019-04-29T18:16:28.929Z,13.49
2019-04-29T18:21:52.332Z,13.46
2019-04-29T18:27:02.730Z,13.43
2019-04-29T18:32:08.363Z,13.38
2019-04-29T18:37:16.483Z,13.40
2019-04-29T18:42:21.129Z,13.47
2019-04-29T18:47:27.596Z,13.08
2019-04-29T18:52:35.136Z,13.13
2019-04-29T18:57:41.749Z,12.99
2019-04-29T19:02:52.475Z,13.11
2019-04-29T19:08:01.455Z,13.06
2019-04-29T19:13:07.074Z,12.90
2019-04-29T19:18:12.451Z,12.81
2019-04-29T19:23:22.400Z,12.74
2019-04-29T19:28:30.248Z,12.53
2019-04-29T19:33:35.108Z,12.66
2019-04-29T19:38:38.120Z,12.44
2019-04-29T19:43:43.773Z,12.32
2019-04-29T19:48:49.330Z,12.23
2019-04-29T19:53:55.295Z,12.31
2019-04-29T19:59:10.388Z,12.27
2019-04-29T20:04:17.616Z,12.24
2019-04-29T20:09:23.042Z,12.15
2019-04-29T20:14:33.428Z,12.25
2019-04-29T20:19:37.897Z,12.16
2019-04-29T20:24:49.669Z,12.08
2019-04-29T20:29:51.063Z,11.98
2019-04-29T20:35:05.268Z,11.80
2019-04-29T20:40:06.652Z,11.60
2019-04-29T20:45:12.780Z,11.48
2019-04-29T20:50:18.669Z,11.25
2019-04-29T20:55:24.415Z,11.15
2019-04-29T21:00:31.569Z,11.06
2019-04-29T21:05:47.444Z,11.14
2019-04-29T21:10:46.734Z,10.91
2019-04-29T21:15:56.043Z,10.87
2019-04-29T21:21:04.540Z,10.85
2019-04-29T21:26:08.902Z,10.82
2019-04-29T21:31:18.544Z,10.64
2019-04-29T21:36:26.503Z,10.54
2019-04-29T21:41:35.891Z,10.59
2019-04-29T21:46:41.487Z,10.58
2019-04-29T21:51:49.801Z,10.49
2019-04-29T21:56:55.626Z,10.43
2019-04-29T22:02:01.493Z,10.29
2019-04-29T22:07:08.646Z,10.21
2019-04-29T22:12:20.168Z,10.36
2019-04-29T22:17:21.423Z,10.38
2019-04-29T22:22:30.659Z,10.20
2019-04-29T22:27:39.179Z,10.07
2019-04-29T22:32:41.896Z,10.04
2019-04-29T22:37:47.534Z,9.95
2019-04-29T22:43:08.384Z,9.86
2019-04-29T22:48:16.861Z,9.77
2019-04-29T22:53:17.984Z,9.79
2019-04-29T22:58:24.909Z,9.66
2019-04-29T23:03:32.717Z,9.55
2019-04-29T23:08:38.668Z,9.43
2019-04-29T23:13:46.161Z,9.43
2019-04-29T23:18:51.464Z,9.33
2019-04-29T23:24:01.744Z,9.36
2019-04-29T23:29:07.433Z,9.20
2019-04-29T23:34:12.944Z,9.20
2019-04-29T23:39:18.465Z,9.09
2019-04-29T23:44:23.963Z,9.04
2019-04-29T23:49:29.403Z,8.98
2019-04-29T23:54:44.266Z,9.08
